sensor_id;sensor_type;location;lat;lon;timestamp;pressure;altitude;pressure_sealevel;temperature;humidity
48824;BME280;34640;53.590;10.054;2024-03-02T00:01:01;100058.97;;;9.85;100.00
48824;BME280;34640;53.590;10.054;2024-03-02T00:03:37;100063.28;;;9.85;100.00
48824;BME280;34640;53.590;10.054;2024-03-02T00:06:10;100068.09;;;9.77;100.00
48824;BME280;34640;53.590;10.054;2024-03-02T00:08:45;100069.94;;;9.79;100.00
48824;BME280;34640;53.590;10.054;2024-03-02T00:11:18;100071.16;;;9.70;100.00
48824;BME280;34640;53.590;10.054;2024-03-02T00:13:52;100055.50;;;9.68;100.00
48824;BME280;34640;53.590;10.054;2024-03-02T00:16:30;100055.41;;;9.67;100.00
48824;BME280;34640;53.590;10.054;2024-03-02T00:19:05;100060.75;;;9.70;100.00
48824;BME280;34640;53.590;10.054;2024-03-02T00:21:40;100064.34;;;9.72;100.00
48824;BME280;34640;53.590;10.054;2024-03-02T00:24:21;100065.06;;;9.69;100.00
48824;BME280;34640;53.590;10.054;2024-03-02T00:26:59;100051.16;;;9.85;100.00
48824;BME280;34640;53.590;10.054;2024-03-02T00:29:34;100052.56;;;9.78;100.00
48824;BME280;34640;53.590;10.054;2024-03-02T00:32:12;100040.84;;;9.87;100.00
48824;BME280;34640;53.590;10.054;2024-03-02T00:34:46;100044.78;;;9.62;100.00
48824;BME280;34640;53.590;10.054;2024-03-02T00:37:20;100043.06;;;9.79;100.00
48824;BME280;34640;53.590;10.054;2024-03-02T00:39:54;100036.03;;;9.60;100.00
48824;BME280;34640;53.590;10.054;2024-03-02T00:42:28;100040.09;;;9.55;100.00
48824;BME280;34640;53.590;10.054;2024-03-02T00:45:07;100035.13;;;9.43;100.00
48824;BME280;34640;53.590;10.054;2024-03-02T00:47:41;100043.97;;;9.31;100.00
48824;BME280;34640;53.590;10.054;2024-03-02T00:50:15;100039.66;;;9.31;100.00
48824;BME280;34640;53.590;10.054;2024-03-02T00:53:01;100038.78;;;9.31;100.00
48824;BME280;34640;53.590;10.054;2024-03-02T00:55:38;100033.59;;;9.31;100.00
48824;BME280;34640;53.590;10.054;2024-03-02T00:58:15;100037.50;;;9.23;100.00
48824;BME280;34640;53.590;10.054;2024-03-02T01:00:48;100032.94;;;9.18;100.00
48824;BME280;34640;53.590;10.054;2024-03-02T01:03:22;100037.91;;;9.14;100.00
48824;BME280;34640;53.590;10.054;2024-03-02T01:05:55;100028.13;;;9.10;100.00
48824;BME280;34640;53.590;10.054;2024-03-02T01:08:29;100038.00;;;9.15;100.00
48824;BME280;34640;53.590;10.054;2024-03-02T01:11:03;100037.03;;;9.13;100.00
48824;BME280;34640;53.590;10.054;2024-03-02T01:13:39;100042.28;;;9.15;100.00
48824;BME280;34640;53.590;10.054;2024-03-02T01:16:18;100048.38;;;9.15;100.00
48824;BME280;34640;53.590;10.054;2024-03-02T01:18:51;100044.88;;;9.15;100.00
48824;BME280;34640;53.590;10.054;2024-03-02T01:21:25;100048.03;;;9.09;100.00
48824;BME280;34640;53.590;10.054;2024-03-02T01:23:58;100050.47;;;9.06;100.00
48824;BME280;34640;53.590;10.054;2024-03-02T01:26:33;100052.09;;;9.04;100.00
48824;BME280;34640;53.590;10.054;2024-03-02T01:29:07;100045.09;;;9.03;100.00
48824;BME280;34640;53.590;10.054;2024-03-02T01:31:40;100053.13;;;9.08;100.00
48824;BME280;34640;53.590;10.054;2024-03-02T01:34:14;100054.47;;;9.16;100.00
48824;BME280;34640;53.590;10.054;2024-03-02T01:36:46;100041.47;;;9.16;100.00
48824;BME280;34640;53.590;10.054;2024-03-02T01:39:22;100044.00;;;9.14;100.00
48824;BME280;34640;53.590;10.054;2024-03-02T01:41:57;100042.28;;;9.15;100.00
48824;BME280;34640;53.590;10.054;2024-03-02T01:44:30;100036.94;;;9.12;100.00
48824;BME280;34640;53.590;10.054;2024-03-02T01:47:06;100033.34;;;9.10;100.00
48824;BME280;34640;53.590;10.054;2024-03-02T01:49:40;100030.19;;;8.99;100.00
48824;BME280;34640;53.590;10.054;2024-03-02T01:52:13;100038.84;;;9.00;100.00
48824;BME280;34640;53.590;10.054;2024-03-02T01:54:48;100034.47;;;8.99;100.00
48824;BME280;34640;53.590;10.054;2024-03-02T01:57:24;100036.19;;;8.98;100.00
48824;BME280;34640;53.590;10.054;2024-03-02T01:59:57;100034.31;;;8.96;100.00
48824;BME280;34640;53.590;10.054;2024-03-02T02:02:31;100040.41;;;8.96;100.00
48824;BME280;34640;53.590;10.054;2024-03-02T02:05:05;100035.88;;;8.92;100.00
48824;BME280;34640;53.590;10.054;2024-03-02T02:07:38;100028.59;;;8.86;100.00
48824;BME280;34640;53.590;10.054;2024-03-02T02:10:13;100029.09;;;8.79;100.00
48824;BME280;34640;53.590;10.054;2024-03-02T02:12:47;100032.97;;;8.71;100.00
48824;BME280;34640;53.590;10.054;2024-03-02T02:15:22;100023.50;;;8.72;100.00
48824;BME280;34640;53.590;10.054;2024-03-02T02:17:58;100027.44;;;8.65;100.00
48824;BME280;34640;53.590;10.054;2024-03-02T02:20:33;100020.00;;;8.71;100.00
48824;BME280;34640;53.590;10.054;2024-03-02T02:23:09;100023.84;;;8.63;100.00
48824;BME280;34640;53.590;10.054;2024-03-02T02:25:42;100027.34;;;8.64;100.00
48824;BME280;34640;53.590;10.054;2024-03-02T02:28:16;100017.78;;;8.63;100.00
48824;BME280;34640;53.590;10.054;2024-03-02T02:30:51;100018.03;;;8.67;100.00
48824;BME280;34640;53.590;10.054;2024-03-02T02:33:24;100017.69;;;8.61;100.00
48824;BME280;34640;53.590;10.054;2024-03-02T02:36:00;100017.78;;;8.63;100.00
48824;BME280;34640;53.590;10.054;2024-03-02T02:38:38;100010.81;;;8.62;100.00
48824;BME280;34640;53.590;10.054;2024-03-02T02:41:17;100006.25;;;8.57;100.00
48824;BME280;34640;53.590;10.054;2024-03-02T02:43:50;100005.97;;;8.68;100.00
48824;BME280;34640;53.590;10.054;2024-03-02T02:46:24;100006.06;;;8.69;100.00
48824;BME280;34640;53.590;10.054;2024-03-02T02:48:58;100003.19;;;8.65;100.00
48824;BME280;34640;53.590;10.054;2024-03-02T02:51:31;100000.59;;;8.65;100.00
48824;BME280;34640;53.590;10.054;2024-03-02T02:54:06;99996.03;;;8.61;100.00
48824;BME280;34640;53.590;10.054;2024-03-02T02:56:39;99994.25;;;8.60;100.00
48824;BME280;34640;53.590;10.054;2024-03-02T02:59:12;99985.81;;;8.64;100.00
48824;BME280;34640;53.590;10.054;2024-03-02T03:01:45;99986.72;;;8.64;100.00
48824;BME280;34640;53.590;10.054;2024-03-02T03:04:19;99987.00;;;8.69;100.00
48824;BME280;34640;53.590;10.054;2024-03-02T03:07:11;99995.91;;;8.74;100.00
48824;BME280;34640;53.590;10.054;2024-03-02T03:09:46;99992.50;;;8.75;100.00
48824;BME280;34640;53.590;10.054;2024-03-02T03:12:21;100002.72;;;8.72;100.00
48824;BME280;34640;53.590;10.054;2024-03-02T03:14:54;99994.94;;;8.72;100.00
48824;BME280;34640;53.590;10.054;2024-03-02T03:17:29;100002.81;;;8.73;100.00
48824;BME280;34640;53.590;10.054;2024-03-02T03:20:03;99991.53;;;8.73;100.00
48824;BME280;34640;53.590;10.054;2024-03-02T03:22:39;100002.00;;;8.74;100.00
48824;BME280;34640;53.590;10.054;2024-03-02T03:25:14;99991.63;;;8.74;100.00
48824;BME280;34640;53.590;10.054;2024-03-02T03:27:48;99991.13;;;8.81;100.00
48824;BME280;34640;53.590;10.054;2024-03-02T03:30:21;99991.13;;;8.81;100.00
48824;BME280;34640;53.590;10.054;2024-03-02T03:32:54;99994.28;;;8.76;100.00
48824;BME280;34640;53.590;10.054;2024-03-02T03:35:27;99996.72;;;8.73;100.00
48824;BME280;34640;53.590;10.054;2024-03-02T03:38:01;99993.41;;;8.75;100.00
48824;BME280;34640;53.590;10.054;2024-03-02T03:40:35;99994.22;;;8.74;100.00
48824;BME280;34640;53.590;10.054;2024-03-02T03:43:08;99992.59;;;8.76;100.00
48824;BME280;34640;53.590;10.054;2024-03-02T03:45:41;99995.91;;;8.74;100.00
48824;BME280;34640;53.590;10.054;2024-03-02T03:48:16;99989.03;;;8.74;100.00
48824;BME280;34640;53.590;10.054;2024-03-02T03:50:49;99999.31;;;8.73;100.00
48824;BME280;34640;53.590;10.054;2024-03-02T03:53:22;99989.75;;;8.72;100.00
48824;BME280;34640;53.590;10.054;2024-03-02T03:55:57;99990.66;;;8.72;100.00
48824;BME280;34640;53.590;10.054;2024-03-02T03:58:33;99992.34;;;8.72;100.00
48824;BME280;34640;53.590;10.054;2024-03-02T04:01:06;99992.44;;;8.73;100.00
48824;BME280;34640;53.590;10.054;2024-03-02T04:03:41;99983.41;;;8.83;100.00
48824;BME280;34640;53.590;10.054;2024-03-02T04:06:14;99985.84;;;8.80;100.00
48824;BME280;34640;53.590;10.054;2024-03-02T04:08:50;99979.78;;;8.79;100.00
48824;BME280;34640;53.590;10.054;2024-03-02T04:11:26;99979.13;;;8.83;100.00
48824;BME280;34640;53.590;10.054;2024-03-02T04:13:59;99975.78;;;8.86;100.00
48824;BME280;34640;53.590;10.054;2024-03-02T04:16:33;99974.66;;;8.81;100.00
48824;BME280;34640;53.590;10.054;2024-03-02T04:19:06;99973.69;;;8.79;100.00
48824;BME280;34640;53.590;10.054;2024-03-02T04:21:39;99972.47;;;8.72;100.00
48824;BME280;34640;53.590;10.054;2024-03-02T04:24:12;99975.06;;;8.72;100.00
48824;BME280;34640;53.590;10.054;2024-03-02T04:26:51;99974.34;;;8.75;100.00
48824;BME280;34640;53.590;10.054;2024-03-02T04:29:24;99979.94;;;8.82;100.00
48824;BME280;34640;53.590;10.054;2024-03-02T04:31:57;99978.22;;;8.83;100.00
48824;BME280;34640;53.590;10.054;2024-03-02T04:34:31;99976.44;;;8.82;100.00
48824;BME280;34640;53.590;10.054;2024-03-02T04:37:04;99980.66;;;8.80;100.00
48824;BME280;34640;53.590;10.054;2024-03-02T04:39:41;99977.81;;;8.75;100.00
48824;BME280;34640;53.590;10.054;2024-03-02T04:42:17;99983.00;;;8.75;100.00
48824;BME280;34640;53.590;10.054;2024-03-02T04:44:51;99979.69;;;8.78;100.00
48824;BME280;34640;53.590;10.054;2024-03-02T04:47:24;99986.50;;;8.76;100.00
48824;BME280;34640;53.590;10.054;2024-03-02T04:49:57;99981.31;;;8.76;100.00
48824;BME280;34640;53.590;10.054;2024-03-02T04:52:31;99987.97;;;8.71;100.00
48824;BME280;34640;53.590;10.054;2024-03-02T04:55:04;99985.53;;;8.74;100.00
48824;BME280;34640;53.590;10.054;2024-03-02T04:58:03;99990.72;;;8.74;100.00
48824;BME280;34640;53.590;10.054;2024-03-02T05:00:36;99985.28;;;8.69;100.00
48824;BME280;34640;53.590;10.054;2024-03-02T05:03:10;99990.47;;;8.69;100.00
48824;BME280;34640;53.590;10.054;2024-03-02T05:05:43;99993.78;;;8.67;100.00
48824;BME280;34640;53.590;10.054;2024-03-02T05:08:16;99986.00;;;8.67;100.00
48824;BME280;34640;53.590;10.054;2024-03-02T05:10:49;99983.59;;;8.70;100.00
48824;BME280;34640;53.590;10.054;2024-03-02T05:13:24;99990.28;;;8.66;100.00
48824;BME280;34640;53.590;10.054;2024-03-02T05:15:57;99990.28;;;8.66;100.00
48824;BME280;34640;53.590;10.054;2024-03-02T05:18:31;99980.09;;;8.69;100.00
48824;BME280;34640;53.590;10.054;2024-03-02T05:21:04;99979.91;;;8.66;100.00
48824;BME280;34640;53.590;10.054;2024-03-02T05:23:38;99979.44;;;8.73;100.00
48824;BME280;34640;53.590;10.054;2024-03-02T05:26:11;99975.88;;;8.71;100.00
48824;BME280;34640;53.590;10.054;2024-03-02T05:28:46;99977.50;;;8.69;100.00
48824;BME280;34640;53.590;10.054;2024-03-02T05:31:20;99979.28;;;8.70;100.00
48824;BME280;34640;53.590;10.054;2024-03-02T05:33:53;99988.41;;;8.64;100.00
48824;BME280;34640;53.590;10.054;2024-03-02T05:36:29;99985.66;;;8.61;100.00
48824;BME280;34640;53.590;10.054;2024-03-02T05:39:02;99986.72;;;8.64;100.00
48824;BME280;34640;53.590;10.054;2024-03-02T05:41:37;99980.31;;;8.57;100.00
48824;BME280;34640;53.590;10.054;2024-03-02T05:44:12;99989.00;;;8.58;100.00
48824;BME280;34640;53.590;10.054;2024-03-02T05:46:47;99986.31;;;8.56;100.00
48824;BME280;34640;53.590;10.054;2024-03-02T05:49:20;99989.88;;;8.58;100.00
48824;BME280;34640;53.590;10.054;2024-03-02T05:51:54;99984.69;;;8.58;100.00
48824;BME280;34640;53.590;10.054;2024-03-02T05:54:30;99981.13;;;8.56;100.00
48824;BME280;34640;53.590;10.054;2024-03-02T05:57:04;99976.19;;;8.61;100.00
48824;BME280;34640;53.590;10.054;2024-03-02T05:59:59;99978.78;;;8.61;100.00
48824;BME280;34640;53.590;10.054;2024-03-02T06:02:32;99978.78;;;8.61;100.00
48824;BME280;34640;53.590;10.054;2024-03-02T06:05:10;99979.50;;;8.58;100.00
48824;BME280;34640;53.590;10.054;2024-03-02T06:07:43;99986.72;;;8.64;100.00
48824;BME280;34640;53.590;10.054;2024-03-02T06:10:17;99989.88;;;8.58;100.00
48824;BME280;34640;53.590;10.054;2024-03-02T06:12:50;99987.13;;;8.55;100.00
48824;BME280;34640;53.590;10.054;2024-03-02T06:15:24;99985.59;;;8.59;100.00
48824;BME280;34640;53.590;10.054;2024-03-02T06:17:57;99994.41;;;8.63;100.00
48824;BME280;34640;53.590;10.054;2024-03-02T06:20:30;99985.09;;;8.66;100.00
48824;BME280;34640;53.590;10.054;2024-03-02T06:23:07;99991.09;;;8.65;100.00
48824;BME280;34640;53.590;10.054;2024-03-02T06:25:40;99999.16;;;8.70;100.00
48824;BME280;34640;53.590;10.054;2024-03-02T06:28:13;99998.06;;;8.66;100.00
48824;BME280;34640;53.590;10.054;2024-03-02T06:30:48;99997.38;;;8.69;100.00
48824;BME280;34640;53.590;10.054;2024-03-02T06:33:21;100003.19;;;8.65;100.00
48824;BME280;34640;53.590;10.054;2024-03-02T06:35:54;100004.16;;;8.67;100.00
48824;BME280;34640;53.590;10.054;2024-03-02T06:38:27;99994.28;;;8.76;100.00
48824;BME280;34640;53.590;10.054;2024-03-02T06:41:00;99991.03;;;8.80;100.00
48824;BME280;34640;53.590;10.054;2024-03-02T06:43:34;99995.50;;;8.82;100.00
48824;BME280;34640;53.590;10.054;2024-03-02T06:46:08;99993.16;;;8.87;100.00
48824;BME280;34640;53.590;10.054;2024-03-02T06:48:46;99987.56;;;8.79;100.00
48824;BME280;34640;53.590;10.054;2024-03-02T06:51:19;99990.25;;;8.81;100.00
48824;BME280;34640;53.590;10.054;2024-03-02T06:53:52;99993.47;;;8.77;100.00
48824;BME280;34640;53.590;10.054;2024-03-02T06:56:25;99994.22;;;8.74;100.00
48824;BME280;34640;53.590;10.054;2024-03-02T06:58:58;99996.41;;;8.83;100.00
48824;BME280;34640;53.590;10.054;2024-03-02T07:01:32;99988.22;;;8.92;100.00
48824;BME280;34640;53.590;10.054;2024-03-02T07:04:06;99999.22;;;8.87;100.00
48824;BME280;34640;53.590;10.054;2024-03-02T07:06:39;99996.72;;;8.89;100.00
48824;BME280;34640;53.590;10.054;2024-03-02T07:09:12;99995.28;;;8.94;100.00
48824;BME280;34640;53.590;10.054;2024-03-02T07:11:45;99996.25;;;8.96;100.00
48824;BME280;34640;53.590;10.054;2024-03-02T07:14:22;100000.56;;;8.96;100.00
48824;BME280;34640;53.590;10.054;2024-03-02T07:17:17;100012.16;;;9.02;100.00
48824;BME280;34640;53.590;10.054;2024-03-02T07:19:50;100016.38;;;9.00;100.00
48824;BME280;34640;53.590;10.054;2024-03-02T07:22:24;100018.25;;;9.03;100.00
48824;BME280;34640;53.590;10.054;2024-03-02T07:24:57;100021.16;;;9.09;100.00
48824;BME280;34640;53.590;10.054;2024-03-02T07:27:31;100021.72;;;9.03;100.00
48824;BME280;34640;53.590;10.054;2024-03-02T07:30:06;100030.03;;;9.12;100.00
48824;BME280;34640;53.590;10.054;2024-03-02T07:32:40;100030.44;;;9.20;100.00
48824;BME280;34640;53.590;10.054;2024-03-02T07:35:17;100023.94;;;9.28;100.00
48824;BME280;34640;53.590;10.054;2024-03-02T07:37:50;100036.44;;;9.35;100.00
48824;BME280;34640;53.590;10.054;2024-03-02T07:40:23;100045.13;;;9.36;100.00
48824;BME280;34640;53.590;10.054;2024-03-02T07:42:57;100033.28;;;9.41;100.00
48824;BME280;34640;53.590;10.054;2024-03-02T07:45:30;100041.22;;;9.44;100.00
48824;BME280;34640;53.590;10.054;2024-03-02T07:48:05;100030.31;;;9.51;100.00
48824;BME280;34640;53.590;10.054;2024-03-02T07:50:38;100038.19;;;9.69;100.00
48824;BME280;34640;53.590;10.054;2024-03-02T07:53:11;100050.94;;;9.64;100.00
48824;BME280;34640;53.590;10.054;2024-03-02T07:55:45;100050.94;;;9.64;100.00
48824;BME280;34640;53.590;10.054;2024-03-02T07:58:19;100046.72;;;9.66;100.00
48824;BME280;34640;53.590;10.054;2024-03-02T08:00:53;100048.03;;;9.58;100.00
48824;BME280;34640;53.590;10.054;2024-03-02T08:03:27;100059.25;;;9.57;100.00
48824;BME280;34640;53.590;10.054;2024-03-02T08:06:01;100060.06;;;9.56;100.00
48824;BME280;34640;53.590;10.054;2024-03-02T08:08:34;100061.34;;;9.64;100.00
48824;BME280;34640;53.590;10.054;2024-03-02T08:11:07;100062.66;;;9.56;100.00
48824;BME280;34640;53.590;10.054;2024-03-02T08:13:40;100064.84;;;9.65;100.00
48824;BME280;34640;53.590;10.054;2024-03-02T08:16:14;100063.94;;;9.64;100.00
48824;BME280;34640;53.590;10.054;2024-03-02T08:18:49;100070.59;;;9.75;100.00
48824;BME280;34640;53.590;10.054;2024-03-02T08:21:22;100073.59;;;9.67;100.00
48824;BME280;34640;53.590;10.054;2024-03-02T08:23:55;100071.97;;;9.69;100.00
48824;BME280;34640;53.590;10.054;2024-03-02T08:26:28;100071.91;;;9.67;100.00
48824;BME280;34640;53.590;10.054;2024-03-02T08:29:03;100077.25;;;9.54;100.00
48824;BME280;34640;53.590;10.054;2024-03-02T08:31:36;100077.19;;;9.53;100.00
48824;BME280;34640;53.590;10.054;2024-03-02T08:34:14;100082.56;;;9.56;100.00
48824;BME280;34640;53.590;10.054;2024-03-02T08:36:47;100080.94;;;9.58;100.00
48824;BME280;34640;53.590;10.054;2024-03-02T08:39:20;100084.66;;;9.63;100.00
48824;BME280;34640;53.590;10.054;2024-03-02T08:41:53;100080.69;;;9.53;100.00
48824;BME280;34640;53.590;10.054;2024-03-02T08:44:26;100090.38;;;9.56;100.00
48824;BME280;34640;53.590;10.054;2024-03-02T08:46:59;100090.09;;;9.51;100.00
48824;BME280;34640;53.590;10.054;2024-03-02T08:49:34;100089.88;;;9.63;100.00
48824;BME280;34640;53.590;10.054;2024-03-02T08:52:07;100084.72;;;9.80;100.00
48824;BME280;34640;53.590;10.054;2024-03-02T08:54:40;100081.31;;;9.82;100.00
48824;BME280;34640;53.590;10.054;2024-03-02T08:57:13;100080.22;;;9.94;100.00
48824;BME280;34640;53.590;10.054;2024-03-02T08:59:46;100084.06;;;10.01;100.00
48824;BME280;34640;53.590;10.054;2024-03-02T09:02:19;100086.34;;;10.13;100.00
48824;BME280;34640;53.590;10.054;2024-03-02T09:04:54;100084.34;;;10.07;100.00
48824;BME280;34640;53.590;10.054;2024-03-02T09:07:27;100093.56;;;10.00;100.00
48824;BME280;34640;53.590;10.054;2024-03-02T09:10:00;100097.88;;;10.18;100.00
48824;BME280;34640;53.590;10.054;2024-03-02T09:12:33;100091.25;;;10.40;100.00
48824;BME280;34640;53.590;10.054;2024-03-02T09:15:07;100090.66;;;10.28;100.00
48824;BME280;34640;53.590;10.054;2024-03-02T09:17:40;100092.59;;;10.32;100.00
48824;BME280;34640;53.590;10.054;2024-03-02T09:20:15;100082.06;;;10.47;100.00
48824;BME280;34640;53.590;10.054;2024-03-02T09:22:48;100082.97;;;10.65;100.00
48824;BME280;34640;53.590;10.054;2024-03-02T09:25:21;100085.03;;;10.73;100.00
48824;BME280;34640;53.590;10.054;2024-03-02T09:27:54;100088.09;;;10.64;100.00
48824;BME280;34640;53.590;10.054;2024-03-02T09:30:28;100088.91;;;10.63;100.00
48824;BME280;34640;53.590;10.054;2024-03-02T09:33:01;100097.06;;;10.53;100.00
48824;BME280;34640;53.590;10.054;2024-03-02T09:35:38;100095.44;;;10.73;100.00
48824;BME280;34640;53.590;10.054;2024-03-02T09:38:11;100090.84;;;10.85;100.00
48824;BME280;34640;53.590;10.054;2024-03-02T09:40:46;100091.66;;;10.66;100.00
48824;BME280;34640;53.590;10.054;2024-03-02T09:43:19;100092.41;;;10.63;100.00
48824;BME280;34640;53.590;10.054;2024-03-02T09:45:53;100092.31;;;10.62;100.00
48824;BME280;34640;53.590;10.054;2024-03-02T09:48:26;100096.19;;;10.88;100.00
48824;BME280;34640;53.590;10.054;2024-03-02T09:51:01;100085.84;;;10.89;100.00
48824;BME280;34640;53.590;10.054;2024-03-02T09:53:36;100077.72;;;11.20;100.00
48824;BME280;34640;53.590;10.054;2024-03-02T09:56:09;100090.13;;;11.26;100.00
48824;BME280;34640;53.590;10.054;2024-03-02T09:58:42;100095.09;;;11.39;100.00
48824;BME280;34640;53.590;10.054;2024-03-02T10:01:16;100096.19;;;11.44;100.00
48824;BME280;34640;53.590;10.054;2024-03-02T10:03:50;100092.00;;;11.48;100.00
48824;BME280;34640;53.590;10.054;2024-03-02T10:06:26;100085.97;;;11.49;100.00
48824;BME280;34640;53.590;10.054;2024-03-02T10:08:59;100087.47;;;11.63;100.00
48824;BME280;34640;53.590;10.054;2024-03-02T10:11:35;100086.97;;;11.51;100.00
48824;BME280;34640;53.590;10.054;2024-03-02T10:14:11;100089.41;;;11.67;100.00
48824;BME280;34640;53.590;10.054;2024-03-02T10:16:44;100088.72;;;11.71;100.00
48824;BME280;34640;53.590;10.054;2024-03-02T10:19:19;100092.72;;;11.82;100.00
48824;BME280;34640;53.590;10.054;2024-03-02T10:21:54;100092.97;;;11.88;100.00
48824;BME280;34640;53.590;10.054;2024-03-02T10:24:36;100087.28;;;11.97;100.00
48824;BME280;34640;53.590;10.054;2024-03-02T10:27:22;100095.53;;;11.87;100.00
48824;BME280;34640;53.590;10.054;2024-03-02T10:29:56;100084.34;;;12.10;100.00
48824;BME280;34640;53.590;10.054;2024-03-02T10:32:29;100085.47;;;12.15;100.00
48824;BME280;34640;53.590;10.054;2024-03-02T10:35:03;100088.00;;;12.35;100.00
48824;BME280;34640;53.590;10.054;2024-03-02T10:37:37;100082.09;;;12.39;100.00
48824;BME280;34640;53.590;10.054;2024-03-02T10:40:11;100089.34;;;12.25;100.00
48824;BME280;34640;53.590;10.054;2024-03-02T10:42:45;100087.31;;;12.18;100.00
48824;BME280;34640;53.590;10.054;2024-03-02T10:45:20;100084.69;;;12.18;100.00
48824;BME280;34640;53.590;10.054;2024-03-02T10:47:54;100087.63;;;12.26;100.00
48824;BME280;34640;53.590;10.054;2024-03-02T10:50:27;100092.47;;;12.37;100.00
48824;BME280;34640;53.590;10.054;2024-03-02T10:53:02;100098.44;;;12.35;100.00
48824;BME280;34640;53.590;10.054;2024-03-02T10:55:37;100092.72;;;12.22;100.00
48824;BME280;34640;53.590;10.054;2024-03-02T10:58:12;100104.56;;;12.35;100.00
48824;BME280;34640;53.590;10.054;2024-03-02T11:00:45;100095.97;;;12.59;100.00
48824;BME280;34640;53.590;10.054;2024-03-02T11:03:19;100100.16;;;12.55;100.00
48824;BME280;34640;53.590;10.054;2024-03-02T11:05:52;100091.69;;;12.61;100.00
48824;BME280;34640;53.590;10.054;2024-03-02T11:08:28;100097.47;;;12.74;100.00
48824;BME280;34640;53.590;10.054;2024-03-02T11:11:06;100095.16;;;12.60;100.00
48824;BME280;34640;53.590;10.054;2024-03-02T11:13:42;100099.38;;;12.58;100.00
48824;BME280;34640;53.590;10.054;2024-03-02T11:16:27;100099.72;;;12.65;100.00
48824;BME280;34640;53.590;10.054;2024-03-02T11:19:07;100095.38;;;12.66;100.00
48824;BME280;34640;53.590;10.054;2024-03-02T11:21:44;100098.28;;;12.73;100.00
48824;BME280;34640;53.590;10.054;2024-03-02T11:24:31;100101.09;;;12.78;100.00
48824;BME280;34640;53.590;10.054;2024-03-02T11:27:09;100103.06;;;12.83;100.00
48824;BME280;34640;53.590;10.054;2024-03-02T11:29:45;100097.13;;;12.88;100.00
48824;BME280;34640;53.590;10.054;2024-03-02T11:32:20;100099.56;;;12.83;100.00
48824;BME280;34640;53.590;10.054;2024-03-02T11:34:55;100098.69;;;13.05;100.00
48824;BME280;34640;53.590;10.054;2024-03-02T11:37:29;100110.28;;;13.11;100.00
48824;BME280;34640;53.590;10.054;2024-03-02T11:40:05;100111.44;;;12.97;100.00
48824;BME280;34640;53.590;10.054;2024-03-02T11:42:38;100109.31;;;13.09;100.00
48824;BME280;34640;53.590;10.054;2024-03-02T11:45:11;100111.75;;;13.05;100.00
48824;BME280;34640;53.590;10.054;2024-03-02T11:47:47;100107.97;;;13.19;100.00
48824;BME280;34640;53.590;10.054;2024-03-02T11:50:29;100104.59;;;13.22;100.00
48824;BME280;34640;53.590;10.054;2024-03-02T11:53:02;100110.66;;;13.21;100.00
48824;BME280;34640;53.590;10.054;2024-03-02T11:55:41;100108.50;;;13.33;100.00
48824;BME280;34640;53.590;10.054;2024-03-02T11:58:18;100108.16;;;13.46;100.00
48824;BME280;34640;53.590;10.054;2024-03-02T12:00:52;100102.84;;;13.44;100.00
48824;BME280;34640;53.590;10.054;2024-03-02T12:03:26;100102.44;;;13.34;100.00
48824;BME280;34640;53.590;10.054;2024-03-02T12:06:00;100102.94;;;13.24;100.00
48824;BME280;34640;53.590;10.054;2024-03-02T12:08:34;100108.47;;;13.31;100.00
48824;BME280;34640;53.590;10.054;2024-03-02T12:11:13;100107.63;;;13.32;100.00
48824;BME280;34640;53.590;10.054;2024-03-02T12:13:54;100101.25;;;13.48;100.00
48824;BME280;34640;53.590;10.054;2024-03-02T12:16:28;100096.06;;;13.50;100.00
48824;BME280;34640;53.590;10.054;2024-03-02T12:19:01;100096.91;;;13.49;100.00
48824;BME280;34640;53.590;10.054;2024-03-02T12:21:34;100097.69;;;13.46;100.00
48824;BME280;34640;53.590;10.054;2024-03-02T12:24:07;100101.19;;;13.47;100.00
48824;BME280;34640;53.590;10.054;2024-03-02T12:26:44;100101.66;;;13.36;100.00
48824;BME280;34640;53.590;10.054;2024-03-02T12:29:19;100090.53;;;13.42;100.00
48824;BME280;34640;53.590;10.054;2024-03-02T12:31:53;100088.13;;;13.47;100.00
48824;BME280;34640;53.590;10.054;2024-03-02T12:34:26;100090.44;;;13.39;100.00
48824;BME280;34640;53.590;10.054;2024-03-02T12:36:59;100089.75;;;13.44;100.00
48824;BME280;34640;53.590;10.054;2024-03-02T12:39:32;100088.41;;;13.54;100.00
48824;BME280;34640;53.590;10.054;2024-03-02T12:42:07;100090.75;;;13.70;100.00
48824;BME280;34640;53.590;10.054;2024-03-02T12:44:40;100089.97;;;13.73;100.00
48824;BME280;34640;53.590;10.054;2024-03-02T12:47:13;100083.88;;;13.74;100.00
48824;BME280;34640;53.590;10.054;2024-03-02T12:49:48;100081.75;;;13.64;100.00
48824;BME280;34640;53.590;10.054;2024-03-02T12:52:24;100085.00;;;13.57;100.00
48824;BME280;34640;53.590;10.054;2024-03-02T12:54:57;100085.84;;;13.56;100.00
48824;BME280;34640;53.590;10.054;2024-03-02T12:57:32;100084.31;;;13.62;100.00
48824;BME280;34640;53.590;10.054;2024-03-02T13:00:07;100083.94;;;13.75;100.00
48824;BME280;34640;53.590;10.054;2024-03-02T13:02:41;100081.81;;;13.89;100.00
48824;BME280;34640;53.590;10.054;2024-03-02T13:05:14;100084.63;;;13.70;100.00
48824;BME280;34640;53.590;10.054;2024-03-02T13:07:48;100090.63;;;13.67;100.00
48824;BME280;34640;53.590;10.054;2024-03-02T13:10:21;100088.13;;;13.70;100.00
48824;BME280;34640;53.590;10.054;2024-03-02T13:12:57;100084.94;;;13.79;100.00
48824;BME280;34640;53.590;10.054;2024-03-02T13:15:32;100076.09;;;13.75;100.00
48824;BME280;34640;53.590;10.054;2024-03-02T13:18:07;100080.81;;;13.62;100.00